Time;durP1;ratioP1;P1;durP2;ratioP2;P2;SDS_P1;SDS_P2;PMS_P1;PMS_P2;Temp;Humidity;BMP_temperature;BMP_pressure;BME280_temperature;BME280_humidity;BME280_pressure;Samples;Min_cycle;Max_cycle;Signal;HPM_P1;HPM_P2
2023/09/18 00:00:01;;;;;;;3.55;2.65;;;23.60;60.30;;;;;;5034521;28;20231;-85
2023/09/18 00:02:31;;;;;;;2.78;2.50;;;23.50;60.20;;;;;;5034880;28;20614;-85
2023/09/18 00:04:59;;;;;;;3.15;2.83;;;23.50;60.20;;;;;;5034528;28;20567;-85
2023/09/18 00:07:26;;;;;;;3.60;3.28;;;23.60;60.30;;;;;;5034514;28;20286;-85
2023/09/18 00:09:54;;;;;;;3.30;2.58;;;23.50;60.20;;;;;;5034643;28;20661;-85
2023/09/18 00:12:21;;;;;;;2.95;2.72;;;23.50;60.40;;;;;;5033371;28;20208;-85
2023/09/18 00:14:49;;;;;;;3.00;2.80;;;23.50;60.30;;;;;;5034136;28;20199;-85
2023/09/18 00:17:16;;;;;;;2.92;2.63;;;23.50;60.30;;;;;;5034045;28;20196;-85
2023/09/18 00:19:44;;;;;;;3.35;2.88;;;23.50;60.30;;;;;;5033887;28;20220;-84
2023/09/18 00:22:12;;;;;;;2.78;2.58;;;23.50;60.20;;;;;;5034176;28;20196;-85
2023/09/18 00:24:39;;;;;;;2.90;2.70;;;23.50;60.20;;;;;;5033948;28;20658;-85
2023/09/18 00:27:06;;;;;;;2.90;2.70;;;23.50;60.30;;;;;;5033721;28;20200;-85
2023/09/18 00:29:33;;;;;;;3.40;2.80;;;23.50;60.40;;;;;;5033979;28;20222;-85
2023/09/18 00:32:01;;;;;;;3.53;2.65;;;23.50;60.30;;;;;;5034973;28;20549;-85
2023/09/18 00:34:28;;;;;;;3.10;2.85;;;23.50;60.40;;;;;;5035391;28;20626;-84
2023/09/18 00:36:58;;;;;;;3.00;2.80;;;23.40;60.40;;;;;;5035776;28;20192;-84
2023/09/18 00:39:31;;;;;;;3.13;2.92;;;23.40;60.40;;;;;;5033882;28;20220;-84
2023/09/18 00:41:58;;;;;;;3.05;2.85;;;23.40;60.40;;;;;;5034006;28;20222;-84
2023/09/18 00:44:26;;;;;;;3.70;2.65;;;23.40;60.10;;;;;;5033836;28;20245;-84
2023/09/18 00:46:54;;;;;;;3.38;3.08;;;23.40;60.20;;;;;;5034890;28;20246;-84
2023/09/18 00:49:21;;;;;;;3.75;3.13;;;23.40;60.30;;;;;;5033851;28;20212;-84
2023/09/18 00:51:48;;;;;;;2.92;2.67;;;23.40;60.60;;;;;;5017256;28;20655;-84
2023/09/18 00:54:16;;;;;;;2.88;2.67;;;23.40;60.50;;;;;;5017338;28;20196;-84
2023/09/18 00:56:44;;;;;;;3.05;2.80;;;23.40;60.70;;;;;;5034472;28;20638;-84
2023/09/18 00:59:11;;;;;;;3.03;2.70;;;23.40;60.60;;;;;;5033352;28;20243;-84
2023/09/18 01:01:39;;;;;;;2.90;2.70;;;23.40;60.50;;;;;;5017126;28;20212;-84
2023/09/18 01:04:07;;;;;;;3.47;2.63;;;23.40;60.70;;;;;;5034860;28;20642;-85
2023/09/18 01:06:34;;;;;;;3.65;3.28;;;23.40;60.70;;;;;;5033554;28;20636;-85
2023/09/18 01:09:01;;;;;;;4.47;2.83;;;23.40;60.60;;;;;;5033308;28;20204;-85
2023/09/18 01:11:34;;;;;;;3.03;2.83;;;23.30;60.60;;;;;;5033045;28;20231;-84
2023/09/18 01:14:08;;;;;;;2.97;2.78;;;23.40;60.80;;;;;;5033256;28;20613;-84
2023/09/18 01:16:37;;;;;;;3.20;2.90;;;23.40;60.80;;;;;;5016956;28;20198;-85
2023/09/18 01:19:04;;;;;;;3.50;3.20;;;23.40;60.90;;;;;;5033167;28;20717;-84
2023/09/18 01:21:31;;;;;;;2.78;2.40;;;23.40;60.90;;;;;;5033012;28;20224;-84
2023/09/18 01:23:59;;;;;;;2.95;2.75;;;23.40;60.80;;;;;;5032774;28;20204;-85
2023/09/18 01:26:26;;;;;;;3.25;2.92;;;23.40;60.80;;;;;;5032831;28;20200;-84
2023/09/18 01:28:54;;;;;;;3.45;3.20;;;23.30;60.60;;;;;;5032708;28;20200;-84
2023/09/18 01:31:21;;;;;;;4.28;2.88;;;23.30;60.80;;;;;;5032899;28;20202;-84
2023/09/18 01:33:47;;;;;;;2.97;2.78;;;23.30;60.70;;;;;;5033051;28;20583;-84
2023/09/18 01:36:14;;;;;;;3.50;3.20;;;23.30;60.70;;;;;;5032799;28;20658;-84
2023/09/18 01:38:41;;;;;;;2.90;2.70;;;23.30;60.80;;;;;;5032740;28;20196;-84
2023/09/18 01:41:10;;;;;;;3.20;2.90;;;23.30;60.70;;;;;;5032803;28;20212;-84
2023/09/18 01:43:37;;;;;;;3.17;2.88;;;23.30;60.80;;;;;;5033047;28;20208;-85
2023/09/18 01:46:04;;;;;;;3.47;3.10;;;23.30;60.80;;;;;;5032970;28;20719;-84
2023/09/18 01:48:32;;;;;;;3.17;2.88;;;23.30;60.90;;;;;;5032964;28;20254;-84
2023/09/18 01:50:59;;;;;;;3.17;2.88;;;23.30;61.00;;;;;;5032485;28;20243;-84
2023/09/18 01:53:26;;;;;;;3.00;2.70;;;23.30;60.90;;;;;;5032809;28;20192;-84
2023/09/18 01:55:53;;;;;;;3.60;3.30;;;23.30;61.00;;;;;;5016560;28;20195;-84
2023/09/18 01:58:22;;;;;;;3.05;2.50;;;23.40;61.00;;;;;;5032429;28;20228;-84
2023/09/18 02:00:49;;;;;;;3.10;2.80;;;23.30;61.10;;;;;;5015827;28;20749;-84
2023/09/18 02:03:18;;;;;;;3.00;2.53;;;23.30;61.00;;;;;;5032504;28;20283;-84
2023/09/18 02:05:44;;;;;;;3.75;2.80;;;23.30;61.00;;;;;;5016882;28;20200;-85
2023/09/18 02:08:15;;;;;;;2.97;2.72;;;23.30;61.00;;;;;;5033641;28;20199;-85
2023/09/18 02:10:42;;;;;;;3.63;3.00;;;23.30;61.00;;;;;;5033154;28;20222;-84
2023/09/18 02:13:10;;;;;;;3.00;2.70;;;23.30;61.10;;;;;;5033129;28;20204;-84
2023/09/18 02:15:39;;;;;;;3.17;2.92;;;23.30;60.90;;;;;;5032716;28;20214;-84
2023/09/18 02:18:07;;;;;;;3.40;2.90;;;23.30;60.60;;;;;;5032793;28;20627;-84
2023/09/18 02:20:41;;;;;;;3.92;2.80;;;23.30;60.80;;;;;;5016253;28;20215;-84
2023/09/18 02:23:08;;;;;;;3.28;2.78;;;23.30;60.90;;;;;;5032479;28;20191;-84
2023/09/18 02:25:36;;;;;;;3.20;2.90;;;23.30;61.00;;;;;;5032354;28;20653;-84
2023/09/18 02:28:03;;;;;;;3.88;2.53;;;23.40;61.20;;;;;;5032192;28;20196;-84
2023/09/18 02:30:30;;;;;;;3.33;2.63;;;23.30;61.20;;;;;;5033713;28;20557;-84
2023/09/18 02:32:59;;;;;;;4.80;2.72;;;23.30;61.10;;;;;;5032396;28;20263;-84
2023/09/18 02:35:26;;;;;;;3.13;2.85;;;23.40;61.40;;;;;;5033140;28;20198;-84
2023/09/18 02:37:53;;;;;;;4.28;2.83;;;23.30;61.40;;;;;;5036623;28;20207;-84
2023/09/18 02:40:20;;;;;;;2.90;2.60;;;23.40;61.50;;;;;;5036104;28;20273;-84
2023/09/18 02:42:48;;;;;;;3.25;2.60;;;23.30;61.50;;;;;;5036107;28;20203;-84
2023/09/18 02:45:15;;;;;;;3.70;3.03;;;23.30;61.70;;;;;;5036233;28;20204;-84
2023/09/18 02:47:42;;;;;;;3.17;2.53;;;23.40;61.90;;;;;;5036240;28;20196;-84
2023/09/18 02:50:11;;;;;;;4.40;2.63;;;23.40;62.10;;;;;;5037017;28;20212;-84
2023/09/18 02:52:39;;;;;;;2.70;2.42;;;23.30;62.00;;;;;;5036689;28;20203;-84
2023/09/18 02:55:09;;;;;;;3.65;2.60;;;23.30;62.00;;;;;;5037268;28;20199;-84
2023/09/18 02:57:37;;;;;;;4.10;2.42;;;23.40;62.30;;;;;;5036506;28;20722;-84
2023/09/18 03:00:05;;;;;;;3.65;2.83;;;23.30;62.30;;;;;;5036024;28;20729;-84
2023/09/18 03:02:32;;;;;;;4.22;2.60;;;23.30;62.50;;;;;;5035730;28;20216;-84
2023/09/18 03:04:59;;;;;;;4.70;2.53;;;23.30;62.50;;;;;;5019414;28;20204;-84
2023/09/18 03:07:29;;;;;;;3.85;2.50;;;23.30;62.70;;;;;;5035552;28;20204;-84
2023/09/18 03:09:56;;;;;;;4.72;2.85;;;23.40;63.30;;;;;;5035437;28;20247;-84
2023/09/18 03:12:23;;;;;;;5.70;2.90;;;23.30;63.40;;;;;;5035705;28;20724;-84
2023/09/18 03:14:50;;;;;;;4.85;2.45;;;23.30;63.50;;;;;;5019353;28;20203;-84
2023/09/18 03:17:18;;;;;;;4.35;2.60;;;23.30;63.40;;;;;;5035517;28;20674;-84
2023/09/18 03:19:45;;;;;;;4.18;2.70;;;23.40;63.50;;;;;;5035261;28;20306;-84
2023/09/18 03:22:12;;;;;;;3.63;2.70;;;23.40;63.40;;;;;;5035268;28;20216;-84
2023/09/18 03:24:40;;;;;;;6.53;2.85;;;23.40;63.20;;;;;;5035261;28;20242;-84
2023/09/18 03:27:07;;;;;;;4.90;2.50;;;23.40;63.00;;;;;;5035212;28;20199;-84
2023/09/18 03:29:34;;;;;;;5.05;2.53;;;23.50;63.10;;;;;;5035032;28;20239;-84
2023/09/18 03:32:02;;;;;;;3.90;2.58;;;23.50;63.10;;;;;;5035091;28;20196;-84
2023/09/18 03:34:29;;;;;;;4.78;2.97;;;23.60;63.00;;;;;;5018653;28;20198;-84
2023/09/18 03:36:56;;;;;;;4.78;2.75;;;23.60;62.60;;;;;;5034848;28;20663;-84
2023/09/18 03:39:24;;;;;;;5.40;2.45;;;23.70;62.70;;;;;;5034835;28;20216;-84
2023/09/18 03:41:52;;;;;;;4.80;2.70;;;23.60;62.70;;;;;;5034877;28;20232;-84
2023/09/18 03:44:19;;;;;;;6.50;2.65;;;23.60;62.60;;;;;;5034860;28;20192;-84
2023/09/18 03:46:46;;;;;;;5.38;2.95;;;23.70;62.60;;;;;;5035031;28;20670;-84
2023/09/18 03:49:14;;;;;;;5.28;2.53;;;23.70;62.70;;;;;;5034948;28;20216;-84
2023/09/18 03:51:41;;;;;;;5.40;2.40;;;23.70;62.50;;;;;;5035153;28;20188;-84
2023/09/18 03:54:09;;;;;;;3.42;2.42;;;23.70;62.50;;;;;;5034793;28;20196;-84
2023/09/18 03:56:36;;;;;;;3.95;2.13;;;23.70;62.50;;;;;;5034856;28;20310;-84
2023/09/18 03:59:04;;;;;;;5.65;2.83;;;23.60;62.60;;;;;;5034926;28;20243;-84
2023/09/18 04:01:32;;;;;;;5.75;2.53;;;23.60;62.70;;;;;;5018597;28;20219;-84
2023/09/18 04:03:58;;;;;;;5.68;2.63;;;23.60;62.50;;;;;;5035595;28;20715;-84
2023/09/18 04:06:26;;;;;;;4.40;2.53;;;23.60;62.50;;;;;;5034836;28;20663;-84
2023/09/18 04:08:53;;;;;;;6.65;2.40;;;23.60;62.70;;;;;;5035413;28;20254;-84
2023/09/18 04:11:26;;;;;;;3.83;2.10;;;23.60;62.70;;;;;;5035029;28;20200;-84
2023/09/18 04:13:53;;;;;;;7.65;2.55;;;23.60;62.60;;;;;;5034938;28;20598;-84
2023/09/18 04:16:22;;;;;;;4.85;2.60;;;23.60;62.60;;;;;;5038725;28;20400;-84
2023/09/18 04:18:49;;;;;;;3.78;2.30;;;23.70;62.80;;;;;;5023338;28;20180;-83
2023/09/18 04:21:16;;;;;;;3.90;2.40;;;23.60;62.70;;;;;;5036186;28;20212;-84
2023/09/18 04:23:43;;;;;;;4.10;2.45;;;23.70;62.60;;;;;;5036334;28;20200;-84
2023/09/18 04:26:10;;;;;;;4.68;2.40;;;23.70;62.70;;;;;;5037193;28;20654;-84
2023/09/18 04:28:37;;;;;;;7.18;2.85;;;23.80;62.60;;;;;;5036330;28;20592;-84
2023/09/18 04:31:04;;;;;;;7.50;2.30;;;23.80;62.60;;;;;;5035319;28;20219;-84
2023/09/18 04:33:33;;;;;;;5.97;2.42;;;23.70;62.50;;;;;;5036940;28;20277;-81
2023/09/18 04:36:00;;;;;;;6.82;2.35;;;23.70;62.50;;;;;;5039006;28;20291;-82
2023/09/18 04:38:27;;;;;;;5.82;2.50;;;23.70;62.50;;;;;;5038084;28;20231;-82
2023/09/18 04:40:59;;;;;;;5.95;2.17;;;23.60;63.10;;;;;;5036558;28;20216;-81
2023/09/18 04:43:26;;;;;;;5.15;2.55;;;23.60;63.30;;;;;;5035053;28;20200;-82
2023/09/18 04:45:53;;;;;;;3.47;2.33;;;23.60;63.90;;;;;;5035216;28;20650;-81
2023/09/18 04:48:20;;;;;;;6.97;2.72;;;23.50;63.80;;;;;;5035955;28;20205;-81
2023/09/18 04:50:49;;;;;;;6.22;2.72;;;23.50;64.10;;;;;;5036372;28;20250;-81
2023/09/18 04:53:16;;;;;;;8.88;2.45;;;23.50;64.00;;;;;;5035633;28;20203;-81
2023/09/18 04:55:43;;;;;;;4.65;2.63;;;23.40;63.90;;;;;;5035711;28;20249;-81
2023/09/18 04:58:10;;;;;;;7.25;2.38;;;23.40;64.10;;;;;;5034824;28;20200;-81
2023/09/18 05:00:37;;;;;;;8.55;2.30;;;23.40;64.00;;;;;;5035678;28;20220;-81
2023/09/18 05:03:06;;;;;;;7.93;2.33;;;23.40;64.40;;;;;;5034828;28;20208;-81
2023/09/18 05:05:33;;;;;;;7.85;2.40;;;23.40;64.50;;;;;;5035009;28;20196;-81
2023/09/18 05:08:02;;;;;;;6.32;2.45;;;23.40;64.60;;;;;;5036501;28;20203;-81
2023/09/18 05:10:30;;;;;;;6.63;2.55;;;23.30;64.40;;;;;;5035252;28;20241;-81
2023/09/18 05:12:59;;;;;;;6.53;2.35;;;23.30;64.60;;;;;;5035329;28;20208;-81
2023/09/18 05:15:29;;;;;;;6.22;2.65;;;23.30;64.60;;;;;;5033672;28;20247;-81
2023/09/18 05:17:57;;;;;;;5.97;2.45;;;23.30;64.90;;;;;;5017396;28;20202;-81
2023/09/18 05:20:25;;;;;;;7.32;2.40;;;23.30;64.80;;;;;;5033515;28;20224;-81
2023/09/18 05:22:52;;;;;;;6.47;2.47;;;23.30;64.70;;;;;;5034594;28;20271;-81
2023/09/18 05:25:22;;;;;;;7.13;2.40;;;23.30;64.80;;;;;;5017113;28;20655;-81
2023/09/18 05:27:54;;;;;;;5.93;2.25;;;23.20;64.90;;;;;;5033426;28;20628;-81
2023/09/18 05:30:25;;;;;;;8.57;2.70;;;23.20;65.00;;;;;;5017543;28;20243;-81
2023/09/18 05:32:52;;;;;;;6.15;2.28;;;23.20;65.00;;;;;;5034127;28;20219;-81
2023/09/18 05:35:19;;;;;;;7.03;2.53;;;23.20;64.90;;;;;;5017407;28;20200;-81
2023/09/18 05:37:46;;;;;;;6.15;2.90;;;23.20;64.60;;;;;;5033194;28;20208;-83
2023/09/18 05:40:14;;;;;;;6.45;2.40;;;23.20;64.00;;;;;;5033303;28;20220;-82
2023/09/18 05:42:43;;;;;;;5.45;2.75;;;23.20;64.10;;;;;;5032949;28;20216;-84
2023/09/18 05:45:11;;;;;;;5.63;2.58;;;23.20;64.30;;;;;;5033489;28;20226;-84
2023/09/18 05:47:38;;;;;;;5.43;2.50;;;23.20;64.40;;;;;;5033193;28;20330;-83
2023/09/18 05:50:06;;;;;;;4.50;2.60;;;23.10;64.70;;;;;;5033814;28;20212;-84
2023/09/18 05:52:33;;;;;;;5.22;2.30;;;23.10;65.00;;;;;;5033272;28;20235;-84
2023/09/18 05:55:00;;;;;;;5.70;2.72;;;23.10;65.80;;;;;;5034176;28;20218;-85
2023/09/18 05:57:27;;;;;;;9.55;2.80;;;23.10;65.20;;;;;;5032760;28;20219;-85
2023/09/18 05:59:56;;;;;;;8.13;2.72;;;23.00;65.20;;;;;;5033049;28;20316;-85
2023/09/18 06:02:24;;;;;;;5.18;2.42;;;23.10;65.50;;;;;;5032870;28;20220;-85
2023/09/18 06:04:55;;;;;;;4.43;2.47;;;23.10;65.80;;;;;;5032819;28;20599;-85
2023/09/18 06:07:23;;;;;;;3.83;2.28;;;23.10;65.70;;;;;;5033607;28;20193;-84
2023/09/18 06:09:50;;;;;;;8.00;2.50;;;23.10;65.30;;;;;;5018105;28;20682;-85
2023/09/18 06:12:17;;;;;;;6.55;2.90;;;23.10;65.30;;;;;;5036660;28;20207;-85
2023/09/18 06:14:44;;;;;;;5.65;2.58;;;23.10;65.30;;;;;;5036548;28;20200;-85
2023/09/18 06:17:14;;;;;;;6.40;2.47;;;23.20;65.20;;;;;;5042026;28;20292;-85
2023/09/18 06:19:41;;;;;;;6.55;2.50;;;23.20;65.10;;;;;;5037568;28;20212;-85
2023/09/18 06:22:08;;;;;;;4.40;2.45;;;23.20;65.00;;;;;;5037041;28;20220;-84
2023/09/18 06:24:35;;;;;;;5.38;2.30;;;23.30;65.00;;;;;;5036581;28;20639;-84
2023/09/18 06:27:04;;;;;;;6.65;2.60;;;23.30;65.00;;;;;;5036954;28;20245;-85
2023/09/18 06:29:31;;;;;;;5.55;2.60;;;23.30;64.90;;;;;;5036186;28;20712;-85
2023/09/18 06:31:58;;;;;;;5.68;2.75;;;23.30;64.80;;;;;;5020337;28;20717;-85
2023/09/18 06:34:28;;;;;;;4.43;2.33;;;23.30;64.80;;;;;;5037791;28;20253;-85
2023/09/18 06:36:55;;;;;;;5.97;2.67;;;23.30;64.70;;;;;;5037427;28;20733;-85
2023/09/18 06:39:23;;;;;;;5.43;2.42;;;23.40;64.70;;;;;;5036514;28;20223;-85
2023/09/18 06:41:51;;;;;;;4.93;2.50;;;23.40;64.70;;;;;;5036507;28;20192;-85
2023/09/18 06:44:21;;;;;;;4.63;2.30;;;23.40;64.70;;;;;;5020085;28;20200;-84
2023/09/18 06:46:49;;;;;;;3.85;2.28;;;23.40;64.80;;;;;;5036184;28;20192;-84
2023/09/18 06:49:15;;;;;;;4.78;2.63;;;23.40;64.80;;;;;;5036169;28;20220;-84
2023/09/18 06:51:44;;;;;;;3.65;2.38;;;23.40;64.80;;;;;;5036059;28;20199;-84
2023/09/18 06:54:11;;;;;;;3.47;2.40;;;23.40;64.80;;;;;;5036008;28;20196;-84
2023/09/18 06:56:38;;;;;;;4.32;2.50;;;23.40;64.80;;;;;;5035863;28;20199;-84
2023/09/18 06:59:05;;;;;;;3.03;2.60;;;23.40;64.90;;;;;;5036276;28;20220;-84
2023/09/18 07:01:32;;;;;;;3.45;2.25;;;23.40;64.90;;;;;;5036341;28;20200;-84
2023/09/18 07:03:59;;;;;;;3.25;2.30;;;23.40;64.80;;;;;;5035818;28;20220;-85
2023/09/18 07:06:26;;;;;;;5.85;2.80;;;23.40;64.70;;;;;;5035893;28;20202;-85
2023/09/18 07:08:55;;;;;;;5.32;2.75;;;23.40;64.80;;;;;;5036375;28;20200;-85
2023/09/18 07:11:21;;;;;;;4.45;2.30;;;23.50;65.00;;;;;;5036406;28;20253;-84
2023/09/18 07:13:48;;;;;;;5.20;2.38;;;23.40;64.70;;;;;;5036010;28;20181;-84
2023/09/18 07:16:15;;;;;;;5.03;2.45;;;23.50;65.00;;;;;;5035751;28;20224;-84
2023/09/18 07:18:43;;;;;;;4.60;2.50;;;23.40;64.70;;;;;;5019192;28;20661;-84
2023/09/18 07:21:10;;;;;;;4.30;2.42;;;23.50;64.70;;;;;;5034922;28;20238;-84
2023/09/18 07:23:37;;;;;;;3.33;2.00;;;23.50;64.70;;;;;;5036260;28;20219;-84
2023/09/18 07:26:06;;;;;;;4.40;2.40;;;23.50;64.70;;;;;;5019113;28;20206;-84
2023/09/18 07:28:33;;;;;;;4.82;2.67;;;23.50;64.70;;;;;;5036039;28;20196;-84
2023/09/18 07:31:06;;;;;;;2.67;2.00;;;23.50;64.60;;;;;;5019429;28;20220;-85
2023/09/18 07:33:32;;;;;;;5.57;2.25;;;23.50;64.50;;;;;;5035245;28;20634;-85
2023/09/18 07:35:59;;;;;;;3.00;2.00;;;23.50;64.40;;;;;;5035176;28;20640;-85
2023/09/18 07:38:27;;;;;;;3.53;2.17;;;23.60;64.50;;;;;;5035441;28;20200;-85
2023/09/18 07:40:54;;;;;;;3.80;2.20;;;23.60;64.50;;;;;;5035280;28;20262;-85
2023/09/18 07:43:22;;;;;;;3.58;2.22;;;23.60;64.40;;;;;;5035316;28;20698;-85
2023/09/18 07:45:50;;;;;;;4.60;2.20;;;23.60;64.50;;;;;;5035601;28;20200;-84
2023/09/18 07:48:19;;;;;;;3.72;2.10;;;23.60;64.50;;;;;;5034914;28;20294;-84
2023/09/18 07:50:49;;;;;;;2.65;2.05;;;23.70;64.50;;;;;;5036164;28;20222;-84
2023/09/18 07:53:16;;;;;;;3.60;1.85;;;23.60;64.40;;;;;;5036295;28;20212;-85
2023/09/18 07:55:43;;;;;;;5.30;1.95;;;23.60;64.30;;;;;;5033404;28;20227;-84
2023/09/18 07:58:10;;;;;;;2.72;2.05;;;23.60;65.20;;;;;;5046031;28;20654;-84
2023/09/18 08:00:39;;;;;;;4.70;2.00;;;23.60;64.40;;;;;;5035286;28;20584;-85
2023/09/18 08:03:06;;;;;;;3.53;1.70;;;23.70;64.30;;;;;;5034530;28;20216;-85
2023/09/18 08:05:33;;;;;;;5.28;2.00;;;23.70;64.20;;;;;;5035161;28;20254;-85
2023/09/18 08:08:00;;;;;;;4.57;1.95;;;23.80;64.00;;;;;;5035108;28;20189;-85
2023/09/18 08:10:27;;;;;;;3.38;1.88;;;23.80;63.70;;;;;;5018343;28;20223;-85
2023/09/18 08:12:55;;;;;;;3.55;1.92;;;23.80;63.50;;;;;;5034910;28;20607;-85
2023/09/18 08:15:23;;;;;;;4.25;1.77;;;23.80;63.30;;;;;;5034463;28;20574;-84
2023/09/18 08:17:53;;;;;;;4.63;1.90;;;23.90;63.20;;;;;;5034564;28;20192;-85
2023/09/18 08:20:20;;;;;;;5.18;2.13;;;23.90;63.00;;;;;;5034521;28;20311;-85
2023/09/18 08:22:48;;;;;;;3.35;1.70;;;23.90;62.80;;;;;;5034276;28;20232;-85
2023/09/18 08:25:14;;;;;;;4.00;2.00;;;23.90;62.70;;;;;;5034232;28;20206;-85
2023/09/18 08:27:43;;;;;;;4.15;1.98;;;23.90;62.70;;;;;;5034214;28;20560;-85
2023/09/18 08:30:11;;;;;;;3.00;1.63;;;23.90;62.70;;;;;;5033873;28;20251;-85
2023/09/18 08:32:38;;;;;;;2.85;1.70;;;23.90;62.70;;;;;;5034880;28;20192;-85
2023/09/18 08:35:08;;;;;;;3.03;1.92;;;23.90;62.90;;;;;;5033918;28;20199;-85
2023/09/18 08:37:35;;;;;;;3.40;1.90;;;23.90;63.00;;;;;;5034229;28;20246;-85
2023/09/18 08:40:09;;;;;;;2.08;1.63;;;23.90;63.20;;;;;;5034747;28;20224;-85
2023/09/18 08:42:37;;;;;;;2.28;1.50;;;23.90;63.90;;;;;;5018381;28;20315;-85
2023/09/18 08:45:04;;;;;;;2.03;1.83;;;24.00;62.90;;;;;;5033682;28;20196;-85
2023/09/18 08:47:31;;;;;;;2.60;1.73;;;24.00;62.90;;;;;;5034373;28;20192;-84
2023/09/18 08:49:59;;;;;;;2.42;1.50;;;24.00;62.80;;;;;;5033815;28;20220;-85
2023/09/18 08:52:27;;;;;;;3.50;1.60;;;24.00;62.70;;;;;;5033607;28;20203;-85
2023/09/18 08:54:55;;;;;;;2.13;1.60;;;24.10;62.80;;;;;;5033581;28;20204;-85
2023/09/18 08:57:22;;;;;;;3.88;1.73;;;24.00;62.60;;;;;;5034179;28;20196;-85
2023/09/18 08:59:49;;;;;;;2.05;1.52;;;24.00;62.40;;;;;;5033579;28;20219;-85
2023/09/18 09:02:17;;;;;;;3.67;1.70;;;24.00;62.30;;;;;;5034266;28;20218;-84
2023/09/18 09:04:44;;;;;;;2.47;1.50;;;24.00;62.40;;;;;;5034016;28;20200;-84
2023/09/18 09:07:11;;;;;;;2.10;1.45;;;24.00;62.20;;;;;;5034377;28;20200;-84
2023/09/18 09:09:40;;;;;;;1.52;1.25;;;24.00;62.20;;;;;;5033121;28;20319;-84
2023/09/18 09:12:07;;;;;;;2.40;1.40;;;24.00;62.20;;;;;;5033038;28;20303;-84
2023/09/18 09:14:34;;;;;;;2.55;1.50;;;24.00;62.20;;;;;;5033918;28;20195;-84
2023/09/18 09:17:02;;;;;;;3.25;1.65;;;24.00;62.20;;;;;;5034144;28;20658;-84
2023/09/18 09:19:31;;;;;;;2.47;1.33;;;24.00;62.20;;;;;;5033179;28;20218;-83
2023/09/18 09:21:58;;;;;;;3.97;1.58;;;24.00;62.30;;;;;;5033122;28;20230;-83
2023/09/18 09:24:39;;;;;;;1.60;1.20;;;24.00;62.50;;;;;;5033993;28;20243;-83
2023/09/18 09:27:06;;;;;;;2.80;1.25;;;24.00;62.30;;;;;;5033009;28;20634;-83
2023/09/18 09:29:34;;;;;;;2.90;1.30;;;24.00;62.30;;;;;;5032975;28;20247;-83
2023/09/18 09:32:13;;;;;;;2.72;1.42;;;24.00;62.30;;;;;;5032926;28;20210;-83
2023/09/18 09:34:42;;;;;;;1.88;1.38;;;24.00;62.10;;;;;;5032927;28;20618;-83
2023/09/18 09:37:08;;;;;;;2.53;1.35;;;24.10;62.20;;;;;;5032960;28;20208;-83
2023/09/18 09:39:36;;;;;;;2.00;1.30;;;24.10;62.10;;;;;;5032706;28;20220;-83
2023/09/18 09:42:05;;;;;;;1.98;1.55;;;24.10;62.10;;;;;;5032753;28;20196;-83
2023/09/18 09:44:33;;;;;;;1.80;1.30;;;24.10;62.00;;;;;;5033190;28;20243;-83
2023/09/18 09:47:00;;;;;;;2.35;1.48;;;24.10;62.10;;;;;;5017005;28;20196;-84
2023/09/18 09:49:33;;;;;;;2.63;1.40;;;24.10;62.20;;;;;;5032838;28;20306;-84
2023/09/18 09:52:01;;;;;;;2.80;1.40;;;24.10;62.10;;;;;;5033048;28;20203;-84
2023/09/18 09:54:36;;;;;;;1.92;1.52;;;24.10;61.90;;;;;;5032712;28;20258;-84
2023/09/18 09:57:05;;;;;;;2.03;1.38;;;24.10;62.10;;;;;;5033998;28;20200;-84
2023/09/18 09:59:35;;;;;;;1.70;1.42;;;24.20;62.00;;;;;;5032916;28;20242;-84
2023/09/18 10:02:02;;;;;;;2.72;1.40;;;24.20;62.00;;;;;;5032775;28;20204;-84
2023/09/18 10:04:29;;;;;;;3.25;1.52;;;24.20;61.90;;;;;;5033137;28;20211;-84
2023/09/18 10:06:59;;;;;;;3.05;1.60;;;24.20;61.90;;;;;;5033575;28;20192;-84
2023/09/18 10:09:29;;;;;;;3.25;1.60;;;24.20;61.90;;;;;;5033730;28;20274;-83
2023/09/18 10:11:58;;;;;;;1.63;1.40;;;24.20;61.80;;;;;;5017570;28;20573;-83
2023/09/18 10:14:31;;;;;;;2.53;1.75;;;24.20;61.80;;;;;;5032974;28;20281;-83
2023/09/18 10:17:00;;;;;;;2.35;1.52;;;24.30;62.60;;;;;;5033001;28;20196;-83
2023/09/18 10:19:30;;;;;;;2.13;1.40;;;24.30;61.80;;;;;;5032916;28;20219;-83
2023/09/18 10:22:05;;;;;;;3.10;1.58;;;24.30;61.60;;;;;;5032843;28;20195;-83
2023/09/18 10:24:34;;;;;;;3.17;1.40;;;24.30;61.70;;;;;;5032905;28;20219;-83
2023/09/18 10:27:04;;;;;;;2.10;1.42;;;24.30;61.60;;;;;;5032383;28;20219;-83
2023/09/18 10:29:34;;;;;;;2.55;1.63;;;24.30;61.70;;;;;;5033050;28;20212;-84
2023/09/18 10:32:02;;;;;;;2.30;1.60;;;24.30;61.80;;;;;;5033113;28;20663;-83
2023/09/18 10:34:30;;;;;;;2.45;1.60;;;24.30;61.80;;;;;;5033037;28;20243;-83
2023/09/18 10:36:57;;;;;;;3.38;1.60;;;24.30;62.00;;;;;;5015897;28;20203;-83
2023/09/18 10:39:26;;;;;;;2.92;1.50;;;24.20;62.10;;;;;;5032061;28;20697;-83
2023/09/18 10:41:54;;;;;;;2.72;1.63;;;24.20;62.30;;;;;;5032148;28;20198;-83
2023/09/18 10:44:21;;;;;;;2.42;1.50;;;24.20;62.30;;;;;;5032165;28;20242;-83
2023/09/18 10:46:51;;;;;;;4.55;1.58;;;24.10;62.30;;;;;;5032374;28;20200;-83
2023/09/18 10:49:18;;;;;;;2.08;1.42;;;24.20;62.60;;;;;;5034213;28;20310;-83
2023/09/18 10:51:46;;;;;;;3.17;1.60;;;24.10;62.60;;;;;;5018652;28;20192;-83
2023/09/18 10:54:16;;;;;;;2.75;1.52;;;24.10;62.80;;;;;;5033834;28;20197;-83
2023/09/18 10:56:44;;;;;;;2.25;1.50;;;24.10;62.90;;;;;;5035442;28;20196;-83
2023/09/18 10:59:11;;;;;;;3.20;1.50;;;24.10;62.90;;;;;;5037759;28;20216;-84
2023/09/18 11:01:38;;;;;;;1.70;1.35;;;24.00;62.70;;;;;;5036161;28;20203;-83
2023/09/18 11:04:08;;;;;;;2.85;1.42;;;24.00;62.80;;;;;;5036084;28;20216;-83
2023/09/18 11:07:03;;;;;;;3.10;1.63;;;24.00;62.80;;;;;;5035501;28;20295;-83
2023/09/18 11:09:31;;;;;;;3.08;1.50;;;24.10;62.90;;;;;;5035361;28;20251;-83
2023/09/18 11:12:03;;;;;;;3.25;1.40;;;24.10;62.90;;;;;;5035549;28;20218;-83
2023/09/18 11:14:42;;;;;;;2.03;1.50;;;24.10;62.90;;;;;;5035538;28;20192;-83
2023/09/18 11:17:31;;;;;;;2.45;1.42;;;24.10;62.80;;;;;;5035601;28;20207;-83
2023/09/18 11:20:11;;;;;;;3.10;1.50;;;24.10;62.60;;;;;;5035462;28;20227;-83
2023/09/18 11:22:39;;;;;;;2.97;1.50;;;24.10;62.70;;;;;;5035917;28;20262;-83
2023/09/18 11:25:34;;;;;;;3.38;1.58;;;24.10;62.90;;;;;;5036153;28;20226;-83
2023/09/18 11:28:01;;;;;;;2.03;1.40;;;24.10;62.60;;;;;;5035591;28;20192;-83
2023/09/18 11:30:29;;;;;;;1.83;1.40;;;24.10;62.60;;;;;;5035899;28;20278;-83
2023/09/18 11:32:56;;;;;;;2.83;1.42;;;24.10;62.60;;;;;;5038785;28;20228;-83
2023/09/18 11:35:25;;;;;;;3.85;1.60;;;24.20;62.70;;;;;;5036199;28;20192;-83
2023/09/18 11:38:05;;;;;;;2.28;1.40;;;24.20;62.50;;;;;;5036671;28;20200;-83
2023/09/18 11:40:34;;;;;;;1.50;1.40;;;24.20;62.50;;;;;;5035703;28;20704;-83
2023/09/18 11:43:25;;;;;;;1.80;1.40;;;24.20;62.30;;;;;;5019668;28;20199;-83
2023/09/18 11:45:53;;;;;;;2.70;1.40;;;24.20;62.20;;;;;;5035555;28;20629;-83
2023/09/18 11:48:21;;;;;;;1.92;1.30;;;24.30;62.30;;;;;;5035825;28;20204;-83
2023/09/18 11:50:50;;;;;;;1.88;1.30;;;24.30;62.20;;;;;;5035156;28;20223;-83
2023/09/18 11:53:19;;;;;;;1.75;1.20;;;24.20;62.20;;;;;;5019595;28;20207;-83
2023/09/18 11:55:46;;;;;;;1.83;1.30;;;24.20;62.20;;;;;;5035362;28;20198;-83
2023/09/18 11:58:13;;;;;;;2.47;1.40;;;24.20;62.20;;;;;;5035886;28;20210;-83
2023/09/18 12:00:46;;;;;;;1.52;1.20;;;24.20;62.20;;;;;;5019791;28;20226;-83
2023/09/18 12:09:59;;;;;;;1.63;1.35;;;24.30;62.00;;;;;;5056410;28;20242;-86
2023/09/18 12:12:27;;;;;;;2.45;1.30;;;24.30;61.80;;;;;;5055091;28;20649;-86
2023/09/18 12:14:54;;;;;;;2.30;1.30;;;24.30;61.90;;;;;;5054905;28;20608;-86
2023/09/18 12:17:21;;;;;;;1.55;1.30;;;24.30;61.80;;;;;;5055157;28;20230;-86
2023/09/18 12:19:54;;;;;;;2.88;1.17;;;24.30;61.90;;;;;;5055709;28;20699;-86
2023/09/18 12:22:26;;;;;;;2.28;1.35;;;24.30;62.00;;;;;;5054297;28;20196;-83
2023/09/18 12:24:53;;;;;;;2.90;1.50;;;24.30;62.00;;;;;;5055185;28;20212;-83
2023/09/18 12:27:21;;;;;;;3.60;1.73;;;24.30;61.90;;;;;;5054333;28;20603;-83
2023/09/18 12:29:48;;;;;;;1.38;1.27;;;24.30;61.90;;;;;;5054352;28;20203;-83
2023/09/18 12:32:15;;;;;;;2.35;1.20;;;24.30;61.80;;;;;;5054108;28;20289;-83
2023/09/18 12:34:42;;;;;;;2.65;1.33;;;24.30;62.00;;;;;;5054445;28;20195;-83
2023/09/18 12:37:11;;;;;;;1.45;1.20;;;24.30;62.00;;;;;;5055635;28;20219;-83
2023/09/18 12:39:38;;;;;;;3.53;1.60;;;24.30;61.90;;;;;;5055351;28;20245;-83
2023/09/18 12:42:05;;;;;;;2.15;1.30;;;24.30;61.70;;;;;;5054416;28;20195;-83
2023/09/18 12:44:34;;;;;;;2.58;1.50;;;24.30;61.80;;;;;;5054181;28;20239;-83
2023/09/18 12:47:03;;;;;;;1.80;1.30;;;24.30;61.70;;;;;;5054842;28;20211;-83
2023/09/18 12:49:31;;;;;;;1.42;1.27;;;24.40;61.70;;;;;;5038680;28;20192;-83
2023/09/18 12:51:58;;;;;;;2.33;1.33;;;24.40;61.70;;;;;;5054409;28;20206;-83
2023/09/18 12:54:39;;;;;;;1.65;1.13;;;24.40;61.40;;;;;;5054974;28;20191;-83
2023/09/18 12:57:06;;;;;;;1.38;1.17;;;24.50;61.50;;;;;;5054848;28;20250;-83
2023/09/18 12:59:36;;;;;;;2.40;1.30;;;24.60;61.50;;;;;;5055062;28;20661;-83